sensor_id;sensor_type;location;lat;lon;timestamp;P1;durP1;ratioP1;P2;durP2;ratioP2
13425;SDS011;6785;57.918;12.530;2023-04-21T00:01:24;6.33;;;1.83;;
13425;SDS011;6785;57.918;12.530;2023-04-21T00:03:51;3.70;;;2.30;;
13425;SDS011;6785;57.918;12.530;2023-04-21T00:06:19;4.83;;;2.20;;
13425;SDS011;6785;57.918;12.530;2023-04-21T00:08:46;3.03;;;2.20;;
13425;SDS011;6785;57.918;12.530;2023-04-21T00:11:13;6.80;;;2.20;;
13425;SDS011;6785;57.918;12.530;2023-04-21T00:13:41;5.00;;;2.43;;
13425;SDS011;6785;57.918;12.530;2023-04-21T00:16:08;6.97;;;2.33;;
13425;SDS011;6785;57.918;12.530;2023-04-21T00:18:35;4.27;;;1.97;;
13425;SDS011;6785;57.918;12.530;2023-04-21T00:21:02;3.63;;;2.33;;
13425;SDS011;6785;57.918;12.530;2023-04-21T00:23:28;4.40;;;2.43;;
13425;SDS011;6785;57.918;12.530;2023-04-21T00:25:55;3.10;;;2.10;;
13425;SDS011;6785;57.918;12.530;2023-04-21T00:28:22;5.77;;;2.47;;
13425;SDS011;6785;57.918;12.530;2023-04-21T00:30:50;5.77;;;2.40;;
13425;SDS011;6785;57.918;12.530;2023-04-21T00:33:18;2.70;;;2.13;;
13425;SDS011;6785;57.918;12.530;2023-04-21T00:35:45;3.50;;;2.00;;
13425;SDS011;6785;57.918;12.530;2023-04-21T00:38:11;5.57;;;1.93;;
13425;SDS011;6785;57.918;12.530;2023-04-21T00:40:38;3.07;;;2.10;;
13425;SDS011;6785;57.918;12.530;2023-04-21T00:43:05;2.97;;;2.30;;
13425;SDS011;6785;57.918;12.530;2023-04-21T00:45:32;6.70;;;2.50;;
13425;SDS011;6785;57.918;12.530;2023-04-21T00:48:00;2.90;;;2.20;;
13425;SDS011;6785;57.918;12.530;2023-04-21T00:50:27;6.13;;;2.50;;
13425;SDS011;6785;57.918;12.530;2023-04-21T00:52:54;2.67;;;2.23;;
13425;SDS011;6785;57.918;12.530;2023-04-21T00:55:21;6.13;;;2.50;;
13425;SDS011;6785;57.918;12.530;2023-04-21T00:57:48;3.23;;;2.03;;
13425;SDS011;6785;57.918;12.530;2023-04-21T01:00:17;8.70;;;2.40;;
13425;SDS011;6785;57.918;12.530;2023-04-21T01:02:44;5.67;;;2.30;;
13425;SDS011;6785;57.918;12.530;2023-04-21T01:05:12;4.47;;;2.67;;
13425;SDS011;6785;57.918;12.530;2023-04-21T01:07:40;8.27;;;2.20;;
13425;SDS011;6785;57.918;12.530;2023-04-21T01:10:07;3.37;;;2.43;;
13425;SDS011;6785;57.918;12.530;2023-04-21T01:12:40;5.90;;;2.47;;
13425;SDS011;6785;57.918;12.530;2023-04-21T01:15:08;5.90;;;2.27;;
13425;SDS011;6785;57.918;12.530;2023-04-21T01:17:35;10.90;;;2.70;;
13425;SDS011;6785;57.918;12.530;2023-04-21T01:20:05;3.13;;;2.13;;
13425;SDS011;6785;57.918;12.530;2023-04-21T01:22:37;4.97;;;2.33;;
13425;SDS011;6785;57.918;12.530;2023-04-21T01:25:05;2.43;;;2.07;;
13425;SDS011;6785;57.918;12.530;2023-04-21T01:27:33;5.20;;;2.30;;
13425;SDS011;6785;57.918;12.530;2023-04-21T01:30:00;5.80;;;2.83;;
13425;SDS011;6785;57.918;12.530;2023-04-21T01:32:28;3.87;;;2.50;;
13425;SDS011;6785;57.918;12.530;2023-04-21T01:34:56;3.40;;;2.50;;
13425;SDS011;6785;57.918;12.530;2023-04-21T01:37:24;4.67;;;2.67;;
13425;SDS011;6785;57.918;12.530;2023-04-21T01:39:55;6.37;;;2.80;;
13425;SDS011;6785;57.918;12.530;2023-04-21T01:42:24;6.80;;;2.90;;
13425;SDS011;6785;57.918;12.530;2023-04-21T01:44:53;5.57;;;3.00;;
13425;SDS011;6785;57.918;12.530;2023-04-21T01:47:20;8.13;;;2.80;;
13425;SDS011;6785;57.918;12.530;2023-04-21T01:49:48;4.33;;;2.63;;
13425;SDS011;6785;57.918;12.530;2023-04-21T01:52:15;5.47;;;2.43;;
13425;SDS011;6785;57.918;12.530;2023-04-21T01:54:41;9.97;;;2.80;;
13425;SDS011;6785;57.918;12.530;2023-04-21T01:57:10;3.10;;;2.60;;
13425;SDS011;6785;57.918;12.530;2023-04-21T01:59:36;6.13;;;2.60;;
13425;SDS011;6785;57.918;12.530;2023-04-21T02:02:03;4.43;;;2.60;;
13425;SDS011;6785;57.918;12.530;2023-04-21T02:04:30;6.97;;;2.50;;
13425;SDS011;6785;57.918;12.530;2023-04-21T02:06:57;12.93;;;2.80;;
13425;SDS011;6785;57.918;12.530;2023-04-21T02:09:24;6.23;;;2.60;;
13425;SDS011;6785;57.918;12.530;2023-04-21T02:11:50;6.47;;;2.80;;
13425;SDS011;6785;57.918;12.530;2023-04-21T02:14:18;3.57;;;2.60;;
13425;SDS011;6785;57.918;12.530;2023-04-21T02:16:45;2.30;;;2.10;;
13425;SDS011;6785;57.918;12.530;2023-04-21T02:19:12;3.23;;;2.20;;
13425;SDS011;6785;57.918;12.530;2023-04-21T02:21:38;5.13;;;2.70;;
13425;SDS011;6785;57.918;12.530;2023-04-21T02:24:05;3.50;;;2.43;;
13425;SDS011;6785;57.918;12.530;2023-04-21T02:26:32;8.23;;;2.90;;
13425;SDS011;6785;57.918;12.530;2023-04-21T02:28:59;5.33;;;2.33;;
13425;SDS011;6785;57.918;12.530;2023-04-21T02:31:27;3.40;;;2.83;;
13425;SDS011;6785;57.918;12.530;2023-04-21T02:33:54;5.60;;;2.33;;
13425;SDS011;6785;57.918;12.530;2023-04-21T02:36:21;6.57;;;2.70;;
13425;SDS011;6785;57.918;12.530;2023-04-21T02:38:48;7.97;;;3.03;;
13425;SDS011;6785;57.918;12.530;2023-04-21T02:41:15;4.47;;;2.37;;
13425;SDS011;6785;57.918;12.530;2023-04-21T02:43:41;12.03;;;2.60;;
13425;SDS011;6785;57.918;12.530;2023-04-21T02:46:08;7.73;;;3.03;;
13425;SDS011;6785;57.918;12.530;2023-04-21T02:48:36;6.77;;;2.87;;
13425;SDS011;6785;57.918;12.530;2023-04-21T02:51:03;3.00;;;2.57;;
13425;SDS011;6785;57.918;12.530;2023-04-21T02:53:30;2.83;;;2.43;;
13425;SDS011;6785;57.918;12.530;2023-04-21T02:55:57;5.00;;;2.47;;
13425;SDS011;6785;57.918;12.530;2023-04-21T02:58:26;5.13;;;2.70;;
13425;SDS011;6785;57.918;12.530;2023-04-21T03:00:53;3.70;;;2.83;;
13425;SDS011;6785;57.918;12.530;2023-04-21T03:03:19;3.03;;;2.73;;
13425;SDS011;6785;57.918;12.530;2023-04-21T03:05:47;4.47;;;2.93;;
13425;SDS011;6785;57.918;12.530;2023-04-21T03:08:15;2.63;;;2.30;;
13425;SDS011;6785;57.918;12.530;2023-04-21T03:10:41;4.40;;;2.80;;
13425;SDS011;6785;57.918;12.530;2023-04-21T03:13:08;4.63;;;2.97;;
13425;SDS011;6785;57.918;12.530;2023-04-21T03:15:35;10.57;;;3.17;;
13425;SDS011;6785;57.918;12.530;2023-04-21T03:18:01;4.77;;;2.90;;
13425;SDS011;6785;57.918;12.530;2023-04-21T03:20:28;3.83;;;2.40;;
13425;SDS011;6785;57.918;12.530;2023-04-21T03:22:56;6.20;;;2.87;;
13425;SDS011;6785;57.918;12.530;2023-04-21T03:25:23;3.97;;;2.80;;
13425;SDS011;6785;57.918;12.530;2023-04-21T03:27:52;6.40;;;3.00;;
13425;SDS011;6785;57.918;12.530;2023-04-21T03:30:18;4.67;;;2.83;;
13425;SDS011;6785;57.918;12.530;2023-04-21T03:32:45;5.43;;;2.73;;
13425;SDS011;6785;57.918;12.530;2023-04-21T03:35:12;3.17;;;2.60;;
13425;SDS011;6785;57.918;12.530;2023-04-21T03:37:39;3.03;;;2.70;;
13425;SDS011;6785;57.918;12.530;2023-04-21T03:40:07;5.47;;;2.77;;
13425;SDS011;6785;57.918;12.530;2023-04-21T03:42:35;6.20;;;2.67;;
13425;SDS011;6785;57.918;12.530;2023-04-21T03:45:02;4.80;;;2.90;;
13425;SDS011;6785;57.918;12.530;2023-04-21T03:47:29;3.37;;;2.50;;
13425;SDS011;6785;57.918;12.530;2023-04-21T03:49:55;4.37;;;2.80;;
13425;SDS011;6785;57.918;12.530;2023-04-21T03:52:22;3.10;;;2.47;;
13425;SDS011;6785;57.918;12.530;2023-04-21T03:54:49;8.80;;;4.20;;
13425;SDS011;6785;57.918;12.530;2023-04-21T03:57:17;5.27;;;4.30;;
13425;SDS011;6785;57.918;12.530;2023-04-21T03:59:44;4.47;;;2.90;;
13425;SDS011;6785;57.918;12.530;2023-04-21T04:02:11;5.17;;;3.60;;
13425;SDS011;6785;57.918;12.530;2023-04-21T04:04:37;7.43;;;2.83;;
13425;SDS011;6785;57.918;12.530;2023-04-21T04:07:04;5.47;;;3.20;;
13425;SDS011;6785;57.918;12.530;2023-04-21T04:09:31;3.73;;;2.97;;
13425;SDS011;6785;57.918;12.530;2023-04-21T04:11:58;3.27;;;2.90;;
13425;SDS011;6785;57.918;12.530;2023-04-21T04:14:28;5.73;;;3.30;;
13425;SDS011;6785;57.918;12.530;2023-04-21T04:16:55;5.07;;;3.10;;
13425;SDS011;6785;57.918;12.530;2023-04-21T04:19:28;5.93;;;2.97;;
13425;SDS011;6785;57.918;12.530;2023-04-21T04:21:56;4.07;;;3.00;;
13425;SDS011;6785;57.918;12.530;2023-04-21T04:24:23;5.03;;;3.53;;
13425;SDS011;6785;57.918;12.530;2023-04-21T04:26:51;3.67;;;2.63;;
13425;SDS011;6785;57.918;12.530;2023-04-21T04:29:18;3.33;;;2.80;;
13425;SDS011;6785;57.918;12.530;2023-04-21T04:31:47;4.83;;;2.70;;
13425;SDS011;6785;57.918;12.530;2023-04-21T04:34:14;5.23;;;2.73;;
13425;SDS011;6785;57.918;12.530;2023-04-21T04:36:41;6.83;;;3.20;;
13425;SDS011;6785;57.918;12.530;2023-04-21T04:39:08;3.03;;;2.47;;
13425;SDS011;6785;57.918;12.530;2023-04-21T04:41:36;7.10;;;3.43;;
13425;SDS011;6785;57.918;12.530;2023-04-21T04:44:03;6.73;;;2.60;;
13425;SDS011;6785;57.918;12.530;2023-04-21T04:46:30;4.63;;;2.40;;
13425;SDS011;6785;57.918;12.530;2023-04-21T04:48:58;7.97;;;2.73;;
13425;SDS011;6785;57.918;12.530;2023-04-21T04:51:25;6.57;;;2.73;;
13425;SDS011;6785;57.918;12.530;2023-04-21T04:53:52;4.00;;;2.73;;
13425;SDS011;6785;57.918;12.530;2023-04-21T04:56:19;7.13;;;2.83;;
13425;SDS011;6785;57.918;12.530;2023-04-21T04:58:46;6.43;;;2.90;;
13425;SDS011;6785;57.918;12.530;2023-04-21T05:01:12;3.43;;;2.50;;
13425;SDS011;6785;57.918;12.530;2023-04-21T05:03:40;3.83;;;2.93;;
13425;SDS011;6785;57.918;12.530;2023-04-21T05:06:08;4.07;;;3.07;;
13425;SDS011;6785;57.918;12.530;2023-04-21T05:08:35;4.90;;;2.77;;
13425;SDS011;6785;57.918;12.530;2023-04-21T05:11:02;7.23;;;2.90;;
13425;SDS011;6785;57.918;12.530;2023-04-21T05:13:28;3.73;;;2.87;;
13425;SDS011;6785;57.918;12.530;2023-04-21T05:15:56;4.37;;;3.03;;
13425;SDS011;6785;57.918;12.530;2023-04-21T05:18:23;7.03;;;3.10;;
13425;SDS011;6785;57.918;12.530;2023-04-21T05:20:50;4.40;;;3.10;;
13425;SDS011;6785;57.918;12.530;2023-04-21T05:23:18;4.53;;;3.00;;
13425;SDS011;6785;57.918;12.530;2023-04-21T05:25:45;2.90;;;2.60;;
13425;SDS011;6785;57.918;12.530;2023-04-21T05:28:11;5.87;;;3.13;;
13425;SDS011;6785;57.918;12.530;2023-04-21T05:30:38;4.37;;;3.37;;
13425;SDS011;6785;57.918;12.530;2023-04-21T05:33:05;7.87;;;3.23;;
13425;SDS011;6785;57.918;12.530;2023-04-21T05:35:33;13.93;;;3.47;;
13425;SDS011;6785;57.918;12.530;2023-04-21T05:38:00;11.10;;;3.03;;
13425;SDS011;6785;57.918;12.530;2023-04-21T05:40:28;7.10;;;3.00;;
13425;SDS011;6785;57.918;12.530;2023-04-21T05:42:55;9.07;;;3.43;;
13425;SDS011;6785;57.918;12.530;2023-04-21T05:45:21;6.00;;;3.33;;
13425;SDS011;6785;57.918;12.530;2023-04-21T05:47:48;10.90;;;3.47;;
13425;SDS011;6785;57.918;12.530;2023-04-21T05:50:15;9.20;;;3.30;;
13425;SDS011;6785;57.918;12.530;2023-04-21T05:52:42;12.53;;;3.30;;
13425;SDS011;6785;57.918;12.530;2023-04-21T05:55:08;14.33;;;3.60;;
13425;SDS011;6785;57.918;12.530;2023-04-21T05:57:36;8.53;;;3.50;;
13425;SDS011;6785;57.918;12.530;2023-04-21T06:00:03;9.07;;;3.57;;
13425;SDS011;6785;57.918;12.530;2023-04-21T06:02:31;9.77;;;3.37;;
13425;SDS011;6785;57.918;12.530;2023-04-21T06:04:58;10.87;;;3.53;;
13425;SDS011;6785;57.918;12.530;2023-04-21T06:07:25;15.07;;;4.30;;
13425;SDS011;6785;57.918;12.530;2023-04-21T06:09:51;12.93;;;3.57;;
13425;SDS011;6785;57.918;12.530;2023-04-21T06:12:18;13.43;;;4.53;;
13425;SDS011;6785;57.918;12.530;2023-04-21T06:14:46;11.63;;;3.67;;
13425;SDS011;6785;57.918;12.530;2023-04-21T06:17:15;12.60;;;4.00;;
13425;SDS011;6785;57.918;12.530;2023-04-21T06:19:42;20.23;;;4.03;;
13425;SDS011;6785;57.918;12.530;2023-04-21T06:22:09;15.97;;;4.40;;
13425;SDS011;6785;57.918;12.530;2023-04-21T06:24:36;14.77;;;4.17;;
13425;SDS011;6785;57.918;12.530;2023-04-21T06:27:02;11.17;;;3.20;;
13425;SDS011;6785;57.918;12.530;2023-04-21T06:29:34;16.80;;;3.77;;
13425;SDS011;6785;57.918;12.530;2023-04-21T06:32:02;14.27;;;3.67;;
13425;SDS011;6785;57.918;12.530;2023-04-21T06:34:29;19.40;;;4.43;;
13425;SDS011;6785;57.918;12.530;2023-04-21T06:36:56;15.33;;;4.20;;
13425;SDS011;6785;57.918;12.530;2023-04-21T06:39:23;14.90;;;5.57;;
13425;SDS011;6785;57.918;12.530;2023-04-21T06:41:49;11.80;;;4.67;;
13425;SDS011;6785;57.918;12.530;2023-04-21T06:44:16;12.67;;;5.17;;
13425;SDS011;6785;57.918;12.530;2023-04-21T06:46:43;12.33;;;4.37;;
13425;SDS011;6785;57.918;12.530;2023-04-21T06:49:11;18.73;;;3.50;;
13425;SDS011;6785;57.918;12.530;2023-04-21T06:51:38;13.07;;;3.00;;
13425;SDS011;6785;57.918;12.530;2023-04-21T06:54:04;13.47;;;3.40;;
13425;SDS011;6785;57.918;12.530;2023-04-21T06:56:31;18.27;;;4.00;;
13425;SDS011;6785;57.918;12.530;2023-04-21T06:58:58;11.47;;;3.53;;
13425;SDS011;6785;57.918;12.530;2023-04-21T07:01:25;6.13;;;3.43;;
13425;SDS011;6785;57.918;12.530;2023-04-21T07:03:51;12.90;;;4.27;;
13425;SDS011;6785;57.918;12.530;2023-04-21T07:06:20;13.90;;;2.50;;
13425;SDS011;6785;57.918;12.530;2023-04-21T07:08:46;7.10;;;3.07;;
13425;SDS011;6785;57.918;12.530;2023-04-21T07:11:13;11.10;;;3.03;;
13425;SDS011;6785;57.918;12.530;2023-04-21T07:13:40;7.87;;;2.67;;
13425;SDS011;6785;57.918;12.530;2023-04-21T07:16:07;9.60;;;3.23;;
13425;SDS011;6785;57.918;12.530;2023-04-21T07:18:33;8.73;;;3.17;;
13425;SDS011;6785;57.918;12.530;2023-04-21T07:21:00;13.77;;;3.10;;
13425;SDS011;6785;57.918;12.530;2023-04-21T07:23:28;19.77;;;3.50;;
13425;SDS011;6785;57.918;12.530;2023-04-21T07:25:55;11.57;;;3.23;;
13425;SDS011;6785;57.918;12.530;2023-04-21T07:28:21;11.60;;;3.17;;
13425;SDS011;6785;57.918;12.530;2023-04-21T07:30:48;9.20;;;3.47;;
13425;SDS011;6785;57.918;12.530;2023-04-21T07:33:15;10.47;;;3.43;;
13425;SDS011;6785;57.918;12.530;2023-04-21T07:35:41;12.67;;;3.67;;
13425;SDS011;6785;57.918;12.530;2023-04-21T07:38:08;11.90;;;3.50;;
13425;SDS011;6785;57.918;12.530;2023-04-21T07:40:36;8.63;;;3.60;;
13425;SDS011;6785;57.918;12.530;2023-04-21T07:43:03;11.80;;;3.30;;
13425;SDS011;6785;57.918;12.530;2023-04-21T07:45:30;8.67;;;3.73;;
13425;SDS011;6785;57.918;12.530;2023-04-21T07:47:56;6.00;;;3.60;;
13425;SDS011;6785;57.918;12.530;2023-04-21T07:50:23;7.50;;;4.10;;
13425;SDS011;6785;57.918;12.530;2023-04-21T07:52:50;6.00;;;3.20;;
13425;SDS011;6785;57.918;12.530;2023-04-21T07:55:17;6.33;;;3.33;;
13425;SDS011;6785;57.918;12.530;2023-04-21T07:57:45;6.43;;;3.70;;
13425;SDS011;6785;57.918;12.530;2023-04-21T08:00:12;5.70;;;3.00;;
13425;SDS011;6785;57.918;12.530;2023-04-21T08:02:39;9.47;;;3.43;;
13425;SDS011;6785;57.918;12.530;2023-04-21T08:05:09;6.90;;;3.73;;
13425;SDS011;6785;57.918;12.530;2023-04-21T08:07:36;4.13;;;2.90;;
13425;SDS011;6785;57.918;12.530;2023-04-21T08:10:03;7.97;;;3.17;;
13425;SDS011;6785;57.918;12.530;2023-04-21T08:12:31;10.07;;;3.70;;
13425;SDS011;6785;57.918;12.530;2023-04-21T08:14:59;7.13;;;2.90;;
13425;SDS011;6785;57.918;12.530;2023-04-21T08:17:29;4.73;;;2.70;;
13425;SDS011;6785;57.918;12.530;2023-04-21T08:19:56;6.23;;;2.93;;
13425;SDS011;6785;57.918;12.530;2023-04-21T08:22:23;5.27;;;3.07;;
13425;SDS011;6785;57.918;12.530;2023-04-21T08:24:50;4.80;;;3.10;;
13425;SDS011;6785;57.918;12.530;2023-04-21T08:27:17;3.47;;;2.33;;
13425;SDS011;6785;57.918;12.530;2023-04-21T08:29:43;3.63;;;2.23;;
13425;SDS011;6785;57.918;12.530;2023-04-21T08:32:12;3.10;;;2.17;;
13425;SDS011;6785;57.918;12.530;2023-04-21T08:34:38;4.97;;;2.60;;
13425;SDS011;6785;57.918;12.530;2023-04-21T08:37:05;4.27;;;2.47;;
13425;SDS011;6785;57.918;12.530;2023-04-21T08:39:32;4.07;;;2.07;;
13425;SDS011;6785;57.918;12.530;2023-04-21T08:41:58;2.83;;;2.17;;
13425;SDS011;6785;57.918;12.530;2023-04-21T08:44:27;3.33;;;2.60;;
13425;SDS011;6785;57.918;12.530;2023-04-21T08:46:54;3.20;;;2.67;;
13425;SDS011;6785;57.918;12.530;2023-04-21T08:49:22;3.97;;;2.27;;
13425;SDS011;6785;57.918;12.530;2023-04-21T08:51:51;4.40;;;2.60;;
13425;SDS011;6785;57.918;12.530;2023-04-21T08:54:18;5.67;;;2.60;;
13425;SDS011;6785;57.918;12.530;2023-04-21T08:56:46;4.63;;;2.40;;
13425;SDS011;6785;57.918;12.530;2023-04-21T08:59:13;4.30;;;2.50;;
13425;SDS011;6785;57.918;12.530;2023-04-21T09:04:35;2.30;;;2.10;;
13425;SDS011;6785;57.918;12.530;2023-04-21T09:07:03;2.67;;;2.10;;
13425;SDS011;6785;57.918;12.530;2023-04-21T09:09:30;2.83;;;1.97;;
13425;SDS011;6785;57.918;12.530;2023-04-21T09:11:57;2.87;;;2.20;;
13425;SDS011;6785;57.918;12.530;2023-04-21T09:14:27;5.33;;;2.23;;
13425;SDS011;6785;57.918;12.530;2023-04-21T09:17:00;2.20;;;1.80;;
13425;SDS011;6785;57.918;12.530;2023-04-21T09:19:27;4.53;;;2.00;;
13425;SDS011;6785;57.918;12.530;2023-04-21T09:21:55;2.97;;;1.93;;
13425;SDS011;6785;57.918;12.530;2023-04-21T09:24:22;2.87;;;2.37;;
13425;SDS011;6785;57.918;12.530;2023-04-21T09:26:49;3.93;;;2.20;;
13425;SDS011;6785;57.918;12.530;2023-04-21T09:29:17;4.23;;;2.07;;
13425;SDS011;6785;57.918;12.530;2023-04-21T09:31:47;2.77;;;2.00;;
13425;SDS011;6785;57.918;12.530;2023-04-21T09:34:16;2.80;;;1.80;;
13425;SDS011;6785;57.918;12.530;2023-04-21T09:36:44;2.47;;;2.00;;
13425;SDS011;6785;57.918;12.530;2023-04-21T09:39:13;4.37;;;2.07;;
13425;SDS011;6785;57.918;12.530;2023-04-21T09:41:39;2.73;;;1.70;;
13425;SDS011;6785;57.918;12.530;2023-04-21T09:44:06;10.73;;;2.23;;
13425;SDS011;6785;57.918;12.530;2023-04-21T09:46:34;3.97;;;2.10;;
13425;SDS011;6785;57.918;12.530;2023-04-21T09:49:02;4.50;;;1.87;;
13425;SDS011;6785;57.918;12.530;2023-04-21T09:51:30;3.67;;;1.90;;
13425;SDS011;6785;57.918;12.530;2023-04-21T09:53:58;3.90;;;1.80;;
13425;SDS011;6785;57.918;12.530;2023-04-21T09:56:32;3.50;;;1.97;;
13425;SDS011;6785;57.918;12.530;2023-04-21T09:59:05;3.00;;;1.90;;
13425;SDS011;6785;57.918;12.530;2023-04-21T10:01:34;5.23;;;2.10;;
13425;SDS011;6785;57.918;12.530;2023-04-21T10:04:03;3.43;;;2.10;;
13425;SDS011;6785;57.918;12.530;2023-04-21T10:06:30;4.83;;;1.83;;
13425;SDS011;6785;57.918;12.530;2023-04-21T10:08:57;6.57;;;1.80;;
13425;SDS011;6785;57.918;12.530;2023-04-21T10:11:24;1.83;;;1.67;;
13425;SDS011;6785;57.918;12.530;2023-04-21T10:13:53;1.90;;;1.70;;
13425;SDS011;6785;57.918;12.530;2023-04-21T10:16:20;3.10;;;1.53;;
13425;SDS011;6785;57.918;12.530;2023-04-21T10:18:47;4.00;;;1.90;;
13425;SDS011;6785;57.918;12.530;2023-04-21T10:21:16;2.60;;;1.60;;
13425;SDS011;6785;57.918;12.530;2023-04-21T10:23:46;2.30;;;1.83;;
13425;SDS011;6785;57.918;12.530;2023-04-21T10:26:15;3.97;;;1.60;;
13425;SDS011;6785;57.918;12.530;2023-04-21T10:28:53;1.50;;;1.40;;
13425;SDS011;6785;57.918;12.530;2023-04-21T10:31:32;1.97;;;1.53;;
13425;SDS011;6785;57.918;12.530;2023-04-21T10:37:08;4.13;;;1.80;;
13425;SDS011;6785;57.918;12.530;2023-04-21T10:39:44;3.10;;;1.60;;
13425;SDS011;6785;57.918;12.530;2023-04-21T10:42:18;2.50;;;1.73;;
13425;SDS011;6785;57.918;12.530;2023-04-21T10:44:51;2.47;;;1.40;;
13425;SDS011;6785;57.918;12.530;2023-04-21T10:47:25;3.50;;;1.90;;
13425;SDS011;6785;57.918;12.530;2023-04-21T10:49:54;2.50;;;1.90;;
13425;SDS011;6785;57.918;12.530;2023-04-21T10:52:21;2.53;;;1.70;;
13425;SDS011;6785;57.918;12.530;2023-04-21T10:55:04;2.67;;;1.50;;
13425;SDS011;6785;57.918;12.530;2023-04-21T10:57:34;4.67;;;1.60;;
13425;SDS011;6785;57.918;12.530;2023-04-21T11:00:04;2.73;;;1.50;;
13425;SDS011;6785;57.918;12.530;2023-04-21T11:02:33;4.33;;;1.70;;
13425;SDS011;6785;57.918;12.530;2023-04-21T11:05:00;2.33;;;1.70;;
13425;SDS011;6785;57.918;12.530;2023-04-21T11:07:27;4.90;;;1.83;;
13425;SDS011;6785;57.918;12.530;2023-04-21T11:09:55;2.17;;;1.60;;
13425;SDS011;6785;57.918;12.530;2023-04-21T11:12:25;3.70;;;1.83;;
13425;SDS011;6785;57.918;12.530;2023-04-21T11:14:53;4.30;;;1.40;;
13425;SDS011;6785;57.918;12.530;2023-04-21T11:17:21;1.40;;;1.30;;
13425;SDS011;6785;57.918;12.530;2023-04-21T11:19:49;5.27;;;1.50;;
13425;SDS011;6785;57.918;12.530;2023-04-21T11:22:17;2.13;;;1.40;;
13425;SDS011;6785;57.918;12.530;2023-04-21T11:24:45;3.10;;;1.60;;
13425;SDS011;6785;57.918;12.530;2023-04-21T11:27:14;2.10;;;1.20;;
13425;SDS011;6785;57.918;12.530;2023-04-21T11:29:43;2.13;;;1.67;;
13425;SDS011;6785;57.918;12.530;2023-04-21T11:32:10;2.97;;;1.27;;
13425;SDS011;6785;57.918;12.530;2023-04-21T11:34:39;3.97;;;1.33;;
13425;SDS011;6785;57.918;12.530;2023-04-21T11:37:06;1.70;;;1.27;;
13425;SDS011;6785;57.918;12.530;2023-04-21T11:39:33;1.53;;;1.20;;
13425;SDS011;6785;57.918;12.530;2023-04-21T11:42:00;1.00;;;0.90;;
13425;SDS011;6785;57.918;12.530;2023-04-21T11:44:31;1.60;;;1.50;;
13425;SDS011;6785;57.918;12.530;2023-04-21T11:46:59;1.47;;;1.37;;
13425;SDS011;6785;57.918;12.530;2023-04-21T11:49:26;2.43;;;1.30;;
13425;SDS011;6785;57.918;12.530;2023-04-21T11:51:55;1.43;;;1.20;;
13425;SDS011;6785;57.918;12.530;2023-04-21T11:54:22;2.10;;;1.30;;
13425;SDS011;6785;57.918;12.530;2023-04-21T11:56:49;2.30;;;1.50;;
13425;SDS011;6785;57.918;12.530;2023-04-21T11:59:17;5.83;;;1.67;;
13425;SDS011;6785;57.918;12.530;2023-04-21T12:01:48;2.80;;;1.60;;
13425;SDS011;6785;57.918;12.530;2023-04-21T12:04:17;2.87;;;1.37;;
13425;SDS011;6785;57.918;12.530;2023-04-21T12:06:45;1.80;;;1.50;;
13425;SDS011;6785;57.918;12.530;2023-04-21T12:09:18;1.77;;;1.40;;
13425;SDS011;6785;57.918;12.530;2023-04-21T12:11:46;3.50;;;1.53;;
13425;SDS011;6785;57.918;12.530;2023-04-21T12:14:14;2.83;;;1.30;;
13425;SDS011;6785;57.918;12.530;2023-04-21T12:16:41;3.87;;;1.57;;
13425;SDS011;6785;57.918;12.530;2023-04-21T12:19:08;3.23;;;1.43;;
13425;SDS011;6785;57.918;12.530;2023-04-21T12:21:36;1.50;;;1.40;;
13425;SDS011;6785;57.918;12.530;2023-04-21T12:24:03;1.50;;;1.40;;
13425;SDS011;6785;57.918;12.530;2023-04-21T12:26:32;1.57;;;1.40;;
13425;SDS011;6785;57.918;12.530;2023-04-21T12:28:59;2.50;;;1.40;;
13425;SDS011;6785;57.918;12.530;2023-04-21T12:31:26;3.13;;;1.30;;
13425;SDS011;6785;57.918;12.530;2023-04-21T12:33:53;1.50;;;1.40;;
13425;SDS011;6785;57.918;12.530;2023-04-21T12:36:19;4.57;;;1.40;;
13425;SDS011;6785;57.918;12.530;2023-04-21T12:38:46;3.17;;;1.57;;
13425;SDS011;6785;57.918;12.530;2023-04-21T12:41:13;5.00;;;1.40;;
13425;SDS011;6785;57.918;12.530;2023-04-21T12:43:41;3.10;;;1.30;;
13425;SDS011;6785;57.918;12.530;2023-04-21T12:46:08;4.10;;;1.40;;
13425;SDS011;6785;57.918;12.530;2023-04-21T12:48:34;1.77;;;1.40;;
13425;SDS011;6785;57.918;12.530;2023-04-21T12:51:01;2.57;;;1.63;;
13425;SDS011;6785;57.918;12.530;2023-04-21T12:53:28;4.57;;;1.50;;
13425;SDS011;6785;57.918;12.530;2023-04-21T12:55:55;1.73;;;1.50;;
13425;SDS011;6785;57.918;12.530;2023-04-21T12:58:22;2.07;;;1.50;;
13425;SDS011;6785;57.918;12.530;2023-04-21T13:00:50;1.80;;;1.20;;
13425;SDS011;6785;57.918;12.530;2023-04-21T13:03:16;3.77;;;1.43;;
13425;SDS011;6785;57.918;12.530;2023-04-21T13:05:43;4.53;;;1.40;;
13425;SDS011;6785;57.918;12.530;2023-04-21T13:08:10;1.43;;;1.17;;
13425;SDS011;6785;57.918;12.530;2023-04-21T13:10:36;2.77;;;1.40;;
13425;SDS011;6785;57.918;12.530;2023-04-21T13:13:04;4.43;;;1.53;;
13425;SDS011;6785;57.918;12.530;2023-04-21T13:15:30;2.27;;;1.40;;
13425;SDS011;6785;57.918;12.530;2023-04-21T13:17:59;2.37;;;1.30;;
13425;SDS011;6785;57.918;12.530;2023-04-21T13:20:25;1.33;;;1.20;;
13425;SDS011;6785;57.918;12.530;2023-04-21T13:22:52;1.80;;;1.40;;
13425;SDS011;6785;57.918;12.530;2023-04-21T13:25:19;1.50;;;1.20;;
13425;SDS011;6785;57.918;12.530;2023-04-21T13:27:45;1.30;;;1.20;;
13425;SDS011;6785;57.918;12.530;2023-04-21T13:30:13;2.87;;;1.33;;
13425;SDS011;6785;57.918;12.530;2023-04-21T13:32:41;2.63;;;1.33;;
13425;SDS011;6785;57.918;12.530;2023-04-21T13:35:09;1.40;;;1.30;;
13425;SDS011;6785;57.918;12.530;2023-04-21T13:37:36;1.40;;;1.30;;
13425;SDS011;6785;57.918;12.530;2023-04-21T13:40:05;2.40;;;1.57;;
13425;SDS011;6785;57.918;12.530;2023-04-21T13:42:33;3.13;;;1.30;;
13425;SDS011;6785;57.918;12.530;2023-04-21T13:45:01;4.03;;;1.40;;
13425;SDS011;6785;57.918;12.530;2023-04-21T13:47:28;1.50;;;1.20;;
13425;SDS011;6785;57.918;12.530;2023-04-21T13:49:55;1.80;;;1.60;;
13425;SDS011;6785;57.918;12.530;2023-04-21T13:52:23;3.50;;;1.60;;
13425;SDS011;6785;57.918;12.530;2023-04-21T13:54:51;1.53;;;1.23;;
13425;SDS011;6785;57.918;12.530;2023-04-21T13:57:18;2.23;;;1.30;;
13425;SDS011;6785;57.918;12.530;2023-04-21T13:59:46;1.57;;;1.20;;
13425;SDS011;6785;57.918;12.530;2023-04-21T14:02:12;1.47;;;1.30;;
13425;SDS011;6785;57.918;12.530;2023-04-21T14:04:39;2.90;;;1.30;;
13425;SDS011;6785;57.918;12.530;2023-04-21T14:07:06;1.53;;;1.10;;
13425;SDS011;6785;57.918;12.530;2023-04-21T14:09:34;3.03;;;1.27;;
13425;SDS011;6785;57.918;12.530;2023-04-21T14:12:01;3.77;;;1.43;;
13425;SDS011;6785;57.918;12.530;2023-04-21T14:14:28;1.50;;;1.30;;
13425;SDS011;6785;57.918;12.530;2023-04-21T14:16:55;4.90;;;1.20;;
13425;SDS011;6785;57.918;12.530;2023-04-21T14:19:21;1.53;;;1.10;;
13425;SDS011;6785;57.918;12.530;2023-04-21T14:21:48;1.37;;;1.27;;
13425;SDS011;6785;57.918;12.530;2023-04-21T14:24:18;3.97;;;1.30;;
13425;SDS011;6785;57.918;12.530;2023-04-21T14:26:47;2.30;;;1.20;;
13425;SDS011;6785;57.918;12.530;2023-04-21T14:29:13;3.13;;;1.40;;
13425;SDS011;6785;57.918;12.530;2023-04-21T14:31:40;2.03;;;1.73;;
13425;SDS011;6785;57.918;12.530;2023-04-21T14:34:07;1.57;;;1.30;;
13425;SDS011;6785;57.918;12.530;2023-04-21T14:36:34;2.93;;;1.30;;
13425;SDS011;6785;57.918;12.530;2023-04-21T14:39:02;3.23;;;1.30;;
13425;SDS011;6785;57.918;12.530;2023-04-21T14:41:28;2.30;;;1.33;;
13425;SDS011;6785;57.918;12.530;2023-04-21T14:43:57;1.23;;;1.10;;
13425;SDS011;6785;57.918;12.530;2023-04-21T14:46:24;3.13;;;1.30;;
13425;SDS011;6785;57.918;12.530;2023-04-21T14:48:52;3.47;;;1.37;;
13425;SDS011;6785;57.918;12.530;2023-04-21T14:51:19;2.23;;;1.27;;
13425;SDS011;6785;57.918;12.530;2023-04-21T14:53:46;3.30;;;1.43;;